createdAt,value
2018-03-31T00:01:01.581Z,15.70
2018-03-31T00:03:28.464Z,16.50
2018-03-31T00:05:55.301Z,16.20
2018-03-31T00:08:22.147Z,15.47
2018-03-31T00:10:48.997Z,16.27
2018-03-31T00:13:15.848Z,15.50
2018-03-31T00:15:42.696Z,14.50
2018-03-31T00:18:09.556Z,15.40
2018-03-31T00:20:36.406Z,15.60
2018-03-31T00:23:03.256Z,15.97
2018-03-31T00:25:30.140Z,16.07
2018-03-31T00:27:56.980Z,16.50
2018-03-31T00:30:23.825Z,15.37
2018-03-31T00:32:50.669Z,16.20
2018-03-31T00:35:17.521Z,15.93
2018-03-31T00:37:44.362Z,16.57
2018-03-31T00:40:11.204Z,16.13
2018-03-31T00:42:38.037Z,16.20
2018-03-31T00:45:04.891Z,15.73
2018-03-31T00:47:31.739Z,15.80
2018-03-31T00:49:58.624Z,16.20
2018-03-31T00:52:25.465Z,15.90
2018-03-31T00:54:52.368Z,15.90
2018-03-31T00:57:19.205Z,17.13
2018-03-31T00:59:46.101Z,16.70
2018-03-31T01:02:13.173Z,17.10
2018-03-31T01:04:40.038Z,16.10
2018-03-31T01:07:06.882Z,17.10
2018-03-31T01:09:33.720Z,18.43
2018-03-31T01:12:00.617Z,17.00
2018-03-31T01:14:27.484Z,17.00
2018-03-31T01:16:54.320Z,17.40
2018-03-31T01:19:21.202Z,17.30
2018-03-31T01:21:48.059Z,17.60
2018-03-31T01:24:14.911Z,17.63
2018-03-31T01:26:41.782Z,18.30
2018-03-31T01:29:08.618Z,17.30
2018-03-31T01:31:35.451Z,17.83
2018-03-31T01:34:02.337Z,17.43
2018-03-31T01:36:29.188Z,17.43
2018-03-31T01:38:56.032Z,17.07
2018-03-31T01:41:22.914Z,17.03
2018-03-31T01:43:49.780Z,16.60
2018-03-31T01:46:16.608Z,17.20
2018-03-31T01:48:43.467Z,17.67
2018-03-31T01:51:10.331Z,18.47
2018-03-31T01:53:37.172Z,17.83
2018-03-31T01:56:04.029Z,18.67
2018-03-31T01:58:30.902Z,18.40
2018-03-31T02:00:57.769Z,18.70
2018-03-31T02:03:24.604Z,19.03
2018-03-31T02:05:51.449Z,16.93
2018-03-31T02:08:18.301Z,17.53
2018-03-31T02:10:45.152Z,17.23
2018-03-31T02:13:12.004Z,17.87
2018-03-31T02:15:38.861Z,17.67
2018-03-31T02:18:05.712Z,17.93
2018-03-31T02:20:32.548Z,18.40
2018-03-31T02:22:59.447Z,18.70
2018-03-31T02:25:26.284Z,17.83
2018-03-31T02:27:53.124Z,17.43
2018-03-31T02:30:19.982Z,18.27
2018-03-31T02:32:46.820Z,18.20
2018-03-31T02:35:13.661Z,19.80
2018-03-31T02:37:40.522Z,20.87
2018-03-31T02:40:07.356Z,20.57
2018-03-31T02:42:34.217Z,20.67
2018-03-31T02:45:01.052Z,21.67
2018-03-31T02:47:27.891Z,19.40
2018-03-31T02:49:54.749Z,20.37
2018-03-31T02:52:21.598Z,19.67
2018-03-31T02:54:48.465Z,20.37
2018-03-31T02:57:15.313Z,21.40
2018-03-31T02:59:42.183Z,21.70
2018-03-31T03:02:09.028Z,22.77
2018-03-31T03:04:35.888Z,20.20
2018-03-31T03:07:02.751Z,20.57
2018-03-31T03:09:29.585Z,21.20
2018-03-31T03:11:56.429Z,21.93
2018-03-31T03:14:23.284Z,22.93
2018-03-31T03:16:50.129Z,20.97
2018-03-31T03:19:17.252Z,19.60
2018-03-31T03:21:44.104Z,21.50
2018-03-31T03:24:11.020Z,22.90
2018-03-31T03:26:37.859Z,22.97
2018-03-31T03:29:04.736Z,22.47
2018-03-31T03:31:31.850Z,21.13
2018-03-31T03:33:58.688Z,21.40
2018-03-31T03:36:25.536Z,20.13
2018-03-31T03:38:52.381Z,20.93
2018-03-31T03:41:19.220Z,21.03
2018-03-31T03:43:46.081Z,22.60
2018-03-31T03:46:12.915Z,22.20
2018-03-31T03:48:39.771Z,22.50
2018-03-31T03:51:06.654Z,21.40
2018-03-31T03:53:33.492Z,22.80
2018-03-31T03:56:00.344Z,22.63
2018-03-31T03:58:27.183Z,22.90
2018-03-31T04:00:54.045Z,21.30
2018-03-31T04:03:20.938Z,21.20
2018-03-31T04:05:47.781Z,21.10
2018-03-31T04:08:15.056Z,21.30
2018-03-31T04:10:41.934Z,21.50
2018-03-31T04:13:08.790Z,21.80
2018-03-31T04:15:35.660Z,21.50
2018-03-31T04:18:02.508Z,21.23
2018-03-31T04:20:29.684Z,22.97
2018-03-31T04:22:56.522Z,22.40
2018-03-31T04:25:23.359Z,23.00
2018-03-31T04:27:50.220Z,23.87
2018-03-31T04:30:17.063Z,23.27
2018-03-31T04:32:44.316Z,23.27
2018-03-31T04:35:11.163Z,23.60
2018-03-31T04:37:38.001Z,24.60
2018-03-31T04:40:04.860Z,25.33
2018-03-31T04:42:31.701Z,24.23
2018-03-31T04:44:58.552Z,25.10
2018-03-31T04:47:25.420Z,23.13
2018-03-31T04:49:52.280Z,24.67
2018-03-31T04:52:19.108Z,23.53
2018-03-31T04:54:45.968Z,24.90
2018-03-31T04:57:12.852Z,25.70
2018-03-31T04:59:39.697Z,27.17
2018-03-31T05:02:06.540Z,26.67
2018-03-31T05:04:33.497Z,26.33
2018-03-31T05:07:00.339Z,25.10
2018-03-31T05:09:27.467Z,25.83
2018-03-31T05:11:54.291Z,25.17
2018-03-31T05:14:21.133Z,25.47
2018-03-31T05:16:47.980Z,27.23
2018-03-31T05:19:14.825Z,26.10
2018-03-31T05:21:41.915Z,24.93
2018-03-31T05:24:08.748Z,26.40
2018-03-31T05:26:36.296Z,24.90
2018-03-31T05:29:03.145Z,24.77
2018-03-31T05:31:30.952Z,26.30
2018-03-31T05:33:57.864Z,24.90
2018-03-31T05:36:28.333Z,24.20
2018-03-31T05:38:55.556Z,24.37
2018-03-31T05:41:22.392Z,24.30
2018-03-31T05:43:49.240Z,23.77
2018-03-31T05:46:16.341Z,24.33
2018-03-31T05:48:43.210Z,25.43
2018-03-31T05:51:10.035Z,26.43
2018-03-31T05:53:36.893Z,25.93
2018-03-31T05:56:03.750Z,25.20
2018-03-31T05:58:30.596Z,25.03
2018-03-31T06:01:03.216Z,26.57
2018-03-31T06:03:30.186Z,25.10
2018-03-31T06:05:56.992Z,25.03
2018-03-31T06:08:23.864Z,26.47
2018-03-31T06:10:50.724Z,24.43
2018-03-31T06:13:17.560Z,25.90
2018-03-31T06:15:44.444Z,24.80
2018-03-31T06:18:11.304Z,25.63
2018-03-31T06:20:38.167Z,25.67
2018-03-31T06:23:05.000Z,25.27
2018-03-31T06:25:31.852Z,23.70
2018-03-31T06:27:58.712Z,25.33
2018-03-31T06:30:25.570Z,24.40
2018-03-31T06:32:52.400Z,27.00
2018-03-31T06:35:19.244Z,23.93
2018-03-31T06:37:46.079Z,25.50
2018-03-31T06:40:12.925Z,26.77
2018-03-31T06:42:39.780Z,26.03
2018-03-31T06:45:06.624Z,29.37
2018-03-31T06:47:33.486Z,24.10
2018-03-31T06:50:00.305Z,24.73
2018-03-31T06:52:27.160Z,24.10
2018-03-31T06:54:54.000Z,23.37
2018-03-31T06:57:20.836Z,24.07
2018-03-31T06:59:48.636Z,23.70
2018-03-31T07:02:15.481Z,22.73
2018-03-31T07:04:42.366Z,23.67
2018-03-31T07:07:09.201Z,23.73
2018-03-31T07:09:36.060Z,22.33
2018-03-31T07:12:02.904Z,21.87
2018-03-31T07:14:29.752Z,21.87
2018-03-31T07:16:56.605Z,20.47
2018-03-31T07:19:23.496Z,21.80
2018-03-31T07:21:50.349Z,22.70
2018-03-31T07:24:17.222Z,22.37
2018-03-31T07:26:44.136Z,22.27
2018-03-31T07:29:10.980Z,21.17
2018-03-31T07:31:37.845Z,21.47
2018-03-31T07:34:04.706Z,21.23
2018-03-31T07:36:31.565Z,21.20
2018-03-31T07:38:58.392Z,20.77
2018-03-31T07:41:25.257Z,21.07
2018-03-31T07:43:52.100Z,19.90
2018-03-31T07:46:18.968Z,20.67
2018-03-31T07:48:45.832Z,20.00
2018-03-31T07:51:12.680Z,19.80
2018-03-31T07:53:39.536Z,19.70
2018-03-31T07:56:06.383Z,19.13
2018-03-31T07:58:33.215Z,18.20
2018-03-31T08:01:00.082Z,19.50
2018-03-31T08:03:26.937Z,19.43
2018-03-31T08:05:54.774Z,19.67
2018-03-31T08:08:22.584Z,19.07
2018-03-31T08:10:51.528Z,19.07
2018-03-31T08:13:18.371Z,18.60
2018-03-31T08:15:45.219Z,18.33
2018-03-31T08:18:12.093Z,18.77
2018-03-31T08:20:38.930Z,18.40
2018-03-31T08:23:05.798Z,18.13
2018-03-31T08:25:32.628Z,16.80
2018-03-31T08:27:59.468Z,18.13
2018-03-31T08:30:26.334Z,18.80
2018-03-31T08:32:53.152Z,18.87
2018-03-31T08:35:19.992Z,18.47
2018-03-31T08:37:46.852Z,17.80
2018-03-31T08:40:13.713Z,17.33
2018-03-31T08:42:40.921Z,17.87
2018-03-31T08:45:07.758Z,19.07
2018-03-31T08:47:34.598Z,17.67
2018-03-31T08:50:01.462Z,17.67
2018-03-31T08:52:28.300Z,17.67
2018-03-31T08:54:55.180Z,17.43
2018-03-31T08:57:22.021Z,17.67
2018-03-31T08:59:48.892Z,16.47
2018-03-31T09:02:15.740Z,16.80
2018-03-31T09:04:42.580Z,18.20
2018-03-31T09:07:09.748Z,16.97
2018-03-31T09:09:36.602Z,17.83
2018-03-31T09:12:03.445Z,17.27
2018-03-31T09:14:30.285Z,15.43
2018-03-31T09:16:57.129Z,15.60
2018-03-31T09:19:23.984Z,15.53
2018-03-31T09:21:50.895Z,14.13
2018-03-31T09:24:17.752Z,13.03
2018-03-31T09:26:44.644Z,12.20
2018-03-31T09:29:11.492Z,12.20
2018-03-31T09:31:38.447Z,12.23
2018-03-31T09:34:05.326Z,12.30
2018-03-31T09:36:32.158Z,11.87
2018-03-31T09:38:59.032Z,12.33
2018-03-31T09:41:25.879Z,12.77
2018-03-31T09:43:52.732Z,11.00
2018-03-31T09:46:19.573Z,11.80
2018-03-31T09:48:46.436Z,10.90
2018-03-31T09:51:13.289Z,11.50
2018-03-31T09:53:40.149Z,12.67
2018-03-31T09:56:07.024Z,11.73
2018-03-31T09:58:33.856Z,10.90
2018-03-31T10:01:03.481Z,10.60
2018-03-31T10:03:30.361Z,9.87
2018-03-31T10:05:57.207Z,10.50
2018-03-31T10:08:24.925Z,10.57
2018-03-31T10:10:51.805Z,9.30
2018-03-31T10:13:18.661Z,10.40
2018-03-31T10:15:45.524Z,9.87
2018-03-31T10:18:12.359Z,10.40
2018-03-31T10:20:39.480Z,9.83
2018-03-31T10:23:06.331Z,10.07
2018-03-31T10:25:33.165Z,10.37
2018-03-31T10:28:00.421Z,11.33
2018-03-31T10:30:27.268Z,10.70
2018-03-31T10:32:54.143Z,12.00
2018-03-31T10:35:22.898Z,11.70
2018-03-31T10:37:49.678Z,11.80
2018-03-31T10:40:16.545Z,11.93
2018-03-31T10:42:43.381Z,10.70
2018-03-31T10:45:10.821Z,10.83
2018-03-31T10:47:37.713Z,11.30
2018-03-31T10:50:05.428Z,11.60
2018-03-31T10:52:32.283Z,11.93
2018-03-31T10:54:59.133Z,12.20
2018-03-31T10:57:26.012Z,11.83
2018-03-31T10:59:52.868Z,12.17
2018-03-31T11:02:19.718Z,12.13
2018-03-31T11:04:46.597Z,12.00
2018-03-31T11:07:13.464Z,11.57
2018-03-31T11:09:40.452Z,11.03
2018-03-31T11:12:07.309Z,10.47
2018-03-31T11:14:34.156Z,12.03
2018-03-31T11:17:01.001Z,11.30
2018-03-31T11:19:27.861Z,11.37
2018-03-31T11:21:54.731Z,12.37
2018-03-31T11:24:21.645Z,11.80
2018-03-31T11:26:48.826Z,12.73
2018-03-31T11:29:15.653Z,12.17
2018-03-31T11:31:42.548Z,10.97
2018-03-31T11:34:09.400Z,11.27
2018-03-31T11:36:36.276Z,13.60
2018-03-31T11:39:03.144Z,12.43
2018-03-31T11:41:30.010Z,12.27
2018-03-31T11:43:56.980Z,12.03
2018-03-31T11:46:23.877Z,12.33
2018-03-31T11:48:50.755Z,11.73
2018-03-31T11:51:17.640Z,12.43
2018-03-31T11:53:44.508Z,13.03
2018-03-31T11:56:11.368Z,12.37
2018-03-31T11:58:38.234Z,46.53
2018-03-31T12:01:05.293Z,12.73
2018-03-31T12:03:32.165Z,11.57
2018-03-31T12:05:59.002Z,10.37
2018-03-31T12:08:25.844Z,10.97
2018-03-31T12:10:52.689Z,10.43
2018-03-31T12:13:19.529Z,11.70
2018-03-31T12:15:46.380Z,10.93
2018-03-31T12:18:13.220Z,9.80
2018-03-31T12:20:40.665Z,10.57
2018-03-31T12:23:07.513Z,10.27
2018-03-31T12:25:34.349Z,10.10
2018-03-31T12:28:01.208Z,12.23
2018-03-31T12:30:28.088Z,13.03
2018-03-31T12:32:54.942Z,11.87
2018-03-31T12:35:21.800Z,12.30
2018-03-31T12:37:48.650Z,12.40
2018-03-31T12:40:15.528Z,12.83
2018-03-31T12:42:42.372Z,11.70
2018-03-31T12:45:09.219Z,13.27
2018-03-31T12:47:36.444Z,12.30
2018-03-31T12:50:03.327Z,11.23
2018-03-31T12:52:30.208Z,12.17
2018-03-31T12:54:57.073Z,10.90
2018-03-31T12:57:23.919Z,10.83
2018-03-31T12:59:50.774Z,11.20
2018-03-31T13:02:17.623Z,11.10
2018-03-31T13:04:44.468Z,11.60
2018-03-31T13:07:11.349Z,11.80
2018-03-31T13:09:38.219Z,11.97
2018-03-31T13:12:05.083Z,11.17
2018-03-31T13:14:32.038Z,12.47
2018-03-31T13:16:58.927Z,12.10
2018-03-31T13:19:25.760Z,11.47
2018-03-31T13:21:52.577Z,10.57
2018-03-31T13:24:19.425Z,11.37
2018-03-31T13:26:46.294Z,10.60
2018-03-31T13:29:13.153Z,9.63
2018-03-31T13:31:40.003Z,10.47
2018-03-31T13:34:06.893Z,10.70
2018-03-31T13:36:33.752Z,10.50
2018-03-31T13:39:00.601Z,10.10
2018-03-31T13:41:27.462Z,10.77
2018-03-31T13:43:54.301Z,10.10
2018-03-31T13:46:21.133Z,9.93
2018-03-31T13:48:47.976Z,8.87
2018-03-31T13:51:14.812Z,9.57
2018-03-31T13:53:42.009Z,9.93
2018-03-31T13:56:08.848Z,11.17
2018-03-31T13:58:35.722Z,9.80
2018-03-31T14:01:02.611Z,10.27
2018-03-31T14:03:29.454Z,10.43
2018-03-31T14:05:56.304Z,10.73
2018-03-31T14:08:23.144Z,10.50
2018-03-31T14:10:49.988Z,10.50
2018-03-31T14:13:16.861Z,10.53
2018-03-31T14:15:43.689Z,10.93
2018-03-31T14:18:10.568Z,11.20
2018-03-31T14:20:37.444Z,10.73
2018-03-31T14:23:04.306Z,10.40
2018-03-31T14:25:32.184Z,10.43
2018-03-31T14:27:59.036Z,9.87
2018-03-31T14:30:25.881Z,10.90
2018-03-31T14:32:52.728Z,10.60
2018-03-31T14:35:19.568Z,10.93
2018-03-31T14:37:47.630Z,10.20
2018-03-31T14:40:14.446Z,8.80
2018-03-31T14:42:41.294Z,9.00
2018-03-31T14:45:08.129Z,8.93
2018-03-31T14:47:35.076Z,8.57
2018-03-31T14:50:01.929Z,8.70
2018-03-31T14:52:28.798Z,8.90
2018-03-31T14:54:55.952Z,8.87
2018-03-31T14:57:22.793Z,9.87
2018-03-31T14:59:49.650Z,8.70
2018-03-31T15:02:16.488Z,8.47
2018-03-31T15:04:43.397Z,9.00
2018-03-31T15:07:10.285Z,8.97
2018-03-31T15:09:37.160Z,9.23
2018-03-31T15:12:04.115Z,9.80
2018-03-31T15:14:30.960Z,9.57
2018-03-31T15:16:57.936Z,10.20
2018-03-31T15:19:24.772Z,8.53
2018-03-31T15:21:51.621Z,9.50
2018-03-31T15:24:18.461Z,10.13
2018-03-31T15:26:45.313Z,9.10
2018-03-31T15:29:12.184Z,9.73
2018-03-31T15:31:39.381Z,9.47
2018-03-31T15:34:07.124Z,9.80
2018-03-31T15:36:33.964Z,9.90
2018-03-31T15:39:00.821Z,10.50
2018-03-31T15:41:27.669Z,10.07
2018-03-31T15:43:55.257Z,9.67
2018-03-31T15:46:22.112Z,10.03
2018-03-31T15:48:48.972Z,9.47
2018-03-31T15:51:15.814Z,9.53
2018-03-31T15:53:42.644Z,9.30
2018-03-31T15:56:09.493Z,9.10
2018-03-31T15:58:37.323Z,9.27
2018-03-31T16:01:04.168Z,9.10
2018-03-31T16:03:32.375Z,9.40
2018-03-31T16:05:59.244Z,8.70
2018-03-31T16:08:26.085Z,8.87
2018-03-31T16:10:52.933Z,8.97
2018-03-31T16:13:19.764Z,9.23
2018-03-31T16:15:46.612Z,9.10
2018-03-31T16:18:13.443Z,9.10
2018-03-31T16:20:40.284Z,8.80
2018-03-31T16:23:07.136Z,8.87
2018-03-31T16:25:33.973Z,8.80
2018-03-31T16:28:01.265Z,8.90
2018-03-31T16:30:28.104Z,9.33
2018-03-31T16:32:55.388Z,9.33
2018-03-31T16:35:22.224Z,8.83
2018-03-31T16:37:49.077Z,9.33
2018-03-31T16:40:15.971Z,9.60
2018-03-31T16:42:42.762Z,9.37
2018-03-31T16:45:09.649Z,9.47
2018-03-31T16:47:37.169Z,9.17
2018-03-31T16:50:04.005Z,9.40
2018-03-31T16:52:30.845Z,9.40
2018-03-31T16:54:57.696Z,8.83
2018-03-31T16:57:24.573Z,9.27
2018-03-31T16:59:51.425Z,9.80
2018-03-31T17:02:18.275Z,9.30
2018-03-31T17:04:45.109Z,9.70
2018-03-31T17:07:11.956Z,9.47
2018-03-31T17:09:38.819Z,9.10
2018-03-31T17:12:05.645Z,8.37
2018-03-31T17:14:32.481Z,9.37
2018-03-31T17:16:59.392Z,8.77
2018-03-31T17:19:26.240Z,9.43
2018-03-31T17:21:53.472Z,9.30
2018-03-31T17:24:20.349Z,9.57
2018-03-31T17:26:47.201Z,9.83
2018-03-31T17:29:14.056Z,9.00
2018-03-31T17:31:40.888Z,9.37
2018-03-31T17:34:07.755Z,9.30
2018-03-31T17:36:34.591Z,9.70
2018-03-31T17:39:01.429Z,9.43
2018-03-31T17:41:28.280Z,9.23
2018-03-31T17:43:55.116Z,9.77
2018-03-31T17:46:21.964Z,8.93
2018-03-31T17:48:48.882Z,10.43
2018-03-31T17:51:15.724Z,9.20
2018-03-31T17:53:42.576Z,9.90
2018-03-31T17:56:09.446Z,9.80
2018-03-31T17:58:36.350Z,9.37
2018-03-31T18:01:03.184Z,9.50
2018-03-31T18:03:30.056Z,9.70
2018-03-31T18:05:57.689Z,10.50
2018-03-31T18:08:25.333Z,10.37
2018-03-31T18:10:53.196Z,18.40
2018-03-31T18:13:20.038Z,18.73
2018-03-31T18:15:46.885Z,15.80
2018-03-31T18:18:13.730Z,13.13
2018-03-31T18:20:40.572Z,10.63
2018-03-31T18:23:08.451Z,10.90
2018-03-31T18:25:35.321Z,10.20
2018-03-31T18:28:02.399Z,11.80
2018-03-31T18:30:29.233Z,12.20
2018-03-31T18:32:56.133Z,12.97
2018-03-31T18:35:23.027Z,12.63
2018-03-31T18:37:49.852Z,12.57
2018-03-31T18:40:17.352Z,11.23
2018-03-31T18:42:44.221Z,14.70
2018-03-31T18:45:11.064Z,11.07
2018-03-31T18:47:38.016Z,13.53
2018-03-31T18:50:04.857Z,14.53
2018-03-31T18:52:31.706Z,12.50
2018-03-31T18:54:59.285Z,11.60
2018-03-31T18:57:26.172Z,11.60
2018-03-31T18:59:53.020Z,11.37
2018-03-31T19:02:19.980Z,11.87
2018-03-31T19:04:46.813Z,12.23
2018-03-31T19:07:13.656Z,11.53
2018-03-31T19:09:40.500Z,12.20
2018-03-31T19:12:07.350Z,12.07
2018-03-31T19:14:34.317Z,11.77
2018-03-31T19:17:06.707Z,11.70
2018-03-31T19:19:33.580Z,11.60
2018-03-31T19:22:01.211Z,12.00
2018-03-31T19:24:28.063Z,12.73
2018-03-31T19:26:55.081Z,16.30
2018-03-31T19:29:22.312Z,17.73
2018-03-31T19:31:49.156Z,27.03
2018-03-31T19:34:16.128Z,15.10
2018-03-31T19:36:42.849Z,13.90
2018-03-31T19:39:09.683Z,13.70
2018-03-31T19:41:36.549Z,14.97
2018-03-31T19:44:03.407Z,13.10
2018-03-31T19:46:30.244Z,12.13
2018-03-31T19:48:57.098Z,13.33
2018-03-31T19:51:23.945Z,11.83
2018-03-31T19:53:50.815Z,11.60
2018-03-31T19:56:17.640Z,12.17
2018-03-31T19:58:44.481Z,12.57
2018-03-31T20:01:11.326Z,12.67
2018-03-31T20:03:38.174Z,12.23
2018-03-31T20:06:05.016Z,12.60
2018-03-31T20:08:31.857Z,13.83
2018-03-31T20:10:58.700Z,14.00
2018-03-31T20:13:25.552Z,13.90
2018-03-31T20:15:52.409Z,15.17
2018-03-31T20:18:19.260Z,15.40
2018-03-31T20:20:46.096Z,14.77
2018-03-31T20:23:12.936Z,16.83
2018-03-31T20:25:39.781Z,17.60
2018-03-31T20:28:06.629Z,16.73
2018-03-31T20:30:33.888Z,18.57
2018-03-31T20:33:00.724Z,16.60
2018-03-31T20:35:27.576Z,18.63
2018-03-31T20:37:54.412Z,19.23
2018-03-31T20:40:21.256Z,17.90
2018-03-31T20:42:48.203Z,18.23
2018-03-31T20:45:15.045Z,19.03
2018-03-31T20:47:41.888Z,18.53
2018-03-31T20:50:08.732Z,20.67
2018-03-31T20:52:35.572Z,19.97
2018-03-31T20:55:02.421Z,19.40
2018-03-31T20:57:29.264Z,20.10
2018-03-31T20:59:56.112Z,19.53
2018-03-31T21:02:22.954Z,19.97
2018-03-31T21:04:49.792Z,19.17
2018-03-31T21:07:16.644Z,20.57
2018-03-31T21:09:43.480Z,18.87
2018-03-31T21:12:10.320Z,19.00
2018-03-31T21:14:37.172Z,19.33
2018-03-31T21:17:04.012Z,19.53
2018-03-31T21:19:30.860Z,19.17
2018-03-31T21:21:57.698Z,19.40
2018-03-31T21:24:24.540Z,19.10
2018-03-31T21:26:51.385Z,18.93
2018-03-31T21:29:18.226Z,19.87
2018-03-31T21:31:45.074Z,18.97
2018-03-31T21:34:11.912Z,19.70
2018-03-31T21:36:38.758Z,19.57
2018-03-31T21:39:05.600Z,19.90
2018-03-31T21:41:32.448Z,20.50
2018-03-31T21:43:59.297Z,20.27
2018-03-31T21:46:26.155Z,19.87
2018-03-31T21:48:52.993Z,21.13
2018-03-31T21:51:19.832Z,21.23
2018-03-31T21:53:46.677Z,20.63
2018-03-31T21:56:13.513Z,20.50
2018-03-31T21:58:40.781Z,20.50
2018-03-31T22:01:07.623Z,21.07
2018-03-31T22:03:34.460Z,21.97
2018-03-31T22:06:01.318Z,21.90
2018-03-31T22:08:28.177Z,21.27
2018-03-31T22:10:55.028Z,22.63
2018-03-31T22:13:27.464Z,22.37
2018-03-31T22:15:54.301Z,23.83
2018-03-31T22:18:21.144Z,23.17
2018-03-31T22:20:48.002Z,24.00
2018-03-31T22:23:14.844Z,24.37
2018-03-31T22:25:41.701Z,24.40
2018-03-31T22:28:08.544Z,23.77
2018-03-31T22:30:35.388Z,24.93
2018-03-31T22:33:02.238Z,24.73
2018-03-31T22:35:29.081Z,24.70
2018-03-31T22:37:55.931Z,25.53
2018-03-31T22:40:22.768Z,24.03
2018-03-31T22:42:49.632Z,24.10
2018-03-31T22:45:16.474Z,25.13
2018-03-31T22:47:43.316Z,24.07
2018-03-31T22:50:10.156Z,24.47
2018-03-31T22:52:37.012Z,24.57
2018-03-31T22:55:03.866Z,23.53
2018-03-31T22:57:30.703Z,23.87
2018-03-31T22:59:57.569Z,23.40
2018-03-31T23:02:24.407Z,24.83
2018-03-31T23:04:51.252Z,24.17
2018-03-31T23:07:18.101Z,23.73
2018-03-31T23:09:44.929Z,23.90
2018-03-31T23:12:11.780Z,23.17
2018-03-31T23:14:38.637Z,24.20
2018-03-31T23:17:05.484Z,23.53
2018-03-31T23:19:32.348Z,24.90
2018-03-31T23:21:59.189Z,25.30
2018-03-31T23:24:26.027Z,25.23
2018-03-31T23:26:52.885Z,25.10
2018-03-31T23:29:19.992Z,23.83
2018-03-31T23:31:46.829Z,25.33
2018-03-31T23:34:13.665Z,25.00
2018-03-31T23:36:40.517Z,24.70
2018-03-31T23:39:07.360Z,25.53
2018-03-31T23:41:34.200Z,25.20
2018-03-31T23:44:01.040Z,26.03
2018-03-31T23:46:27.883Z,23.57
2018-03-31T23:48:54.721Z,23.30
2018-03-31T23:51:21.556Z,23.60
2018-03-31T23:53:48.418Z,23.73
2018-03-31T23:56:15.259Z,24.37
2018-03-31T23:58:42.092Z,25.53
